createdAt,value
2019-03-19T00:00:42.193Z,0.00
2019-03-19T00:01:42.211Z,0.00
2019-03-19T00:02:42.171Z,0.00
2019-03-19T00:03:42.163Z,0.00
2019-03-19T00:04:42.149Z,0.00
2019-03-19T00:05:42.140Z,0.00
2019-03-19T00:06:42.137Z,0.00
2019-03-19T00:07:42.178Z,0.00
2019-03-19T00:08:42.107Z,0.00
2019-03-19T00:09:42.102Z,0.00
2019-03-19T00:10:42.092Z,0.00
2019-03-19T00:11:42.078Z,0.00
2019-03-19T00:12:42.066Z,0.00
2019-03-19T00:13:42.114Z,0.00
2019-03-19T00:14:42.044Z,0.00
2019-03-19T00:15:42.041Z,0.00
2019-03-19T00:16:42.025Z,0.00
2019-03-19T00:17:42.025Z,0.00
2019-03-19T00:18:42.010Z,0.00
2019-03-19T00:19:42.044Z,0.00
2019-03-19T00:20:41.992Z,0.00
2019-03-19T00:21:41.977Z,0.00
2019-03-19T00:22:41.968Z,0.00
2019-03-19T00:23:41.963Z,0.00
2019-03-19T00:24:41.947Z,0.00
2019-03-19T00:25:41.980Z,0.00
2019-03-19T00:26:41.923Z,0.00
2019-03-19T00:27:41.926Z,0.00
2019-03-19T00:28:41.915Z,0.00
2019-03-19T00:29:41.894Z,0.00
2019-03-19T00:30:41.888Z,0.00
2019-03-19T00:31:41.929Z,0.00
2019-03-19T00:32:41.863Z,0.00
2019-03-19T00:33:41.856Z,0.00
2019-03-19T00:34:41.840Z,0.00
2019-03-19T00:35:41.834Z,0.00
2019-03-19T00:36:41.824Z,0.00
2019-03-19T00:37:41.919Z,0.00
2019-03-19T00:38:41.812Z,0.00
2019-03-19T00:39:41.799Z,0.00
2019-03-19T00:40:41.783Z,0.00
2019-03-19T00:41:41.770Z,0.00
2019-03-19T00:42:41.759Z,0.00
2019-03-19T00:43:41.770Z,0.00
2019-03-19T00:44:41.754Z,0.00
2019-03-19T00:45:41.729Z,0.00
2019-03-19T00:46:41.720Z,0.00
2019-03-19T00:47:41.713Z,0.00
2019-03-19T00:48:41.705Z,0.00
2019-03-19T00:49:41.706Z,0.00
2019-03-19T00:50:41.681Z,0.00
2019-03-19T00:51:41.668Z,0.00
2019-03-19T00:52:41.665Z,0.00
2019-03-19T00:53:41.653Z,0.00
2019-03-19T00:54:41.643Z,0.00
2019-03-19T00:55:41.722Z,0.00
2019-03-19T00:56:41.617Z,0.00
2019-03-19T00:57:41.607Z,0.00
2019-03-19T00:58:41.610Z,0.00
2019-03-19T00:59:41.588Z,0.00
2019-03-19T01:00:41.578Z,0.00
2019-03-19T01:01:41.676Z,0.00
2019-03-19T01:02:41.554Z,0.00
2019-03-19T01:03:41.546Z,0.00
2019-03-19T01:04:41.538Z,0.00
2019-03-19T01:05:41.529Z,0.00
2019-03-19T01:06:41.516Z,0.00
2019-03-19T01:07:41.621Z,0.00
2019-03-19T01:08:41.496Z,0.00
2019-03-19T01:09:41.481Z,0.00
2019-03-19T01:10:41.475Z,0.00
2019-03-19T01:11:41.466Z,0.00
2019-03-19T01:12:41.455Z,0.00
2019-03-19T01:13:41.493Z,0.00
2019-03-19T01:14:41.433Z,0.00
2019-03-19T01:15:41.420Z,0.00
2019-03-19T01:16:41.417Z,0.00
2019-03-19T01:17:41.401Z,0.00
2019-03-19T01:18:41.391Z,0.00
2019-03-19T01:19:41.732Z,0.00
2019-03-19T01:20:41.379Z,0.00
2019-03-19T01:21:41.362Z,0.00
2019-03-19T01:22:41.356Z,0.00
2019-03-19T01:23:41.345Z,0.00
2019-03-19T01:24:41.329Z,0.00
2019-03-19T01:25:54.690Z,0.00
2019-03-19T01:26:42.311Z,0.00
2019-03-19T01:27:41.304Z,0.00
2019-03-19T01:28:41.290Z,0.00
2019-03-19T01:29:41.277Z,0.00
2019-03-19T01:30:41.271Z,0.00
2019-03-19T01:31:41.323Z,0.00
2019-03-19T01:32:41.251Z,0.00
2019-03-19T01:33:41.242Z,0.00
2019-03-19T01:34:41.232Z,0.00
2019-03-19T01:35:41.216Z,0.00
2019-03-19T01:36:41.210Z,0.00
2019-03-19T01:37:41.297Z,0.00
2019-03-19T01:38:41.179Z,0.00
2019-03-19T01:39:41.178Z,0.00
2019-03-19T01:40:41.165Z,0.00
2019-03-19T01:41:41.162Z,0.00
2019-03-19T01:42:41.149Z,0.00
2019-03-19T01:43:41.187Z,0.00
2019-03-19T01:44:41.126Z,0.00
2019-03-19T01:45:41.117Z,0.00
2019-03-19T01:46:41.107Z,0.00
2019-03-19T01:47:41.094Z,0.00
2019-03-19T01:48:41.088Z,0.00
2019-03-19T01:49:41.132Z,0.00
2019-03-19T01:50:41.060Z,0.00
2019-03-19T01:51:41.056Z,0.00
2019-03-19T01:52:41.043Z,0.00
2019-03-19T01:53:41.033Z,0.00
2019-03-19T01:54:41.020Z,0.00
2019-03-19T01:55:41.117Z,0.00
2019-03-19T01:56:40.998Z,0.00
2019-03-19T01:57:40.991Z,0.00
2019-03-19T01:58:40.982Z,0.00
2019-03-19T01:59:40.971Z,0.00
2019-03-19T02:00:40.959Z,0.00
2019-03-19T02:01:41.052Z,0.00
2019-03-19T02:02:40.941Z,0.00
2019-03-19T02:03:40.933Z,0.00
2019-03-19T02:04:40.920Z,0.00
2019-03-19T02:05:40.917Z,0.00
2019-03-19T02:06:40.898Z,0.00
2019-03-19T02:07:40.939Z,0.00
2019-03-19T02:08:40.879Z,0.00
2019-03-19T02:09:40.875Z,0.00
2019-03-19T02:10:40.864Z,0.00
2019-03-19T02:11:40.848Z,0.00
2019-03-19T02:12:40.837Z,0.00
2019-03-19T02:13:40.848Z,0.00
2019-03-19T02:14:40.817Z,0.00
2019-03-19T02:15:40.806Z,0.00
2019-03-19T02:16:40.792Z,0.00
2019-03-19T02:17:40.783Z,0.00
2019-03-19T02:18:40.772Z,0.00
2019-03-19T02:19:40.782Z,0.00
2019-03-19T02:20:40.759Z,0.00
2019-03-19T02:21:40.741Z,0.00
2019-03-19T02:22:40.734Z,0.00
2019-03-19T02:23:40.722Z,0.00
2019-03-19T02:24:40.711Z,0.00
2019-03-19T02:25:40.760Z,0.00
2019-03-19T02:26:40.690Z,0.00
2019-03-19T02:27:40.684Z,0.00
2019-03-19T02:28:47.711Z,0.00
2019-03-19T02:29:40.664Z,0.00
2019-03-19T02:30:40.670Z,0.00
2019-03-19T02:31:40.698Z,0.00
2019-03-19T02:32:40.722Z,0.00
2019-03-19T02:33:40.888Z,0.00
2019-03-19T02:34:40.765Z,0.00
2019-03-19T02:35:40.604Z,0.00
2019-03-19T02:36:40.601Z,0.00
2019-03-19T02:37:40.653Z,0.00
2019-03-19T02:38:40.565Z,0.00
2019-03-19T02:39:40.567Z,0.00
2019-03-19T02:40:40.558Z,0.00
2019-03-19T02:41:40.569Z,0.00
2019-03-19T02:42:40.531Z,0.00
2019-03-19T02:43:40.571Z,0.00
2019-03-19T02:44:40.727Z,0.00
2019-03-19T02:45:40.530Z,0.00
2019-03-19T02:46:40.484Z,0.00
2019-03-19T02:47:40.484Z,0.00
2019-03-19T02:48:40.537Z,0.00
2019-03-19T02:49:40.518Z,0.00
2019-03-19T02:50:40.520Z,0.00
2019-03-19T02:51:40.455Z,0.00
2019-03-19T02:52:40.446Z,0.00
2019-03-19T02:53:40.440Z,0.00
2019-03-19T02:54:40.438Z,0.00
2019-03-19T02:55:40.546Z,0.00
2019-03-19T02:56:40.438Z,0.00
2019-03-19T02:57:40.410Z,0.00
2019-03-19T02:58:40.391Z,0.00
2019-03-19T02:59:40.359Z,0.00
2019-03-19T03:00:40.347Z,0.00
2019-03-19T03:01:40.376Z,0.00
2019-03-19T03:02:40.353Z,0.00
2019-03-19T03:03:40.311Z,0.00
2019-03-19T03:04:40.353Z,0.00
2019-03-19T03:05:40.350Z,0.00
2019-03-19T03:06:40.279Z,0.00
2019-03-19T03:07:40.316Z,0.00
2019-03-19T03:08:40.271Z,0.00
2019-03-19T03:09:40.261Z,0.00
2019-03-19T03:10:40.245Z,0.00
2019-03-19T03:11:40.247Z,0.00
2019-03-19T03:12:40.297Z,0.00
2019-03-19T03:13:40.302Z,0.00
2019-03-19T03:14:40.208Z,0.00
2019-03-19T03:15:40.222Z,0.00
2019-03-19T03:16:40.235Z,0.00
2019-03-19T03:17:40.179Z,0.00
2019-03-19T03:18:40.162Z,0.00
2019-03-19T03:19:40.204Z,0.00
2019-03-19T03:20:40.139Z,0.00
2019-03-19T03:21:40.148Z,0.00
2019-03-19T03:22:40.126Z,0.00
2019-03-19T03:23:40.097Z,0.00
2019-03-19T03:24:40.130Z,0.00
2019-03-19T03:25:40.177Z,0.00
2019-03-19T03:26:47.623Z,0.00
2019-03-19T03:27:41.063Z,0.00
2019-03-19T03:28:40.063Z,0.00
2019-03-19T03:29:40.049Z,0.00
2019-03-19T03:30:40.049Z,0.00
2019-03-19T03:31:40.123Z,0.00
2019-03-19T03:32:40.049Z,0.00
2019-03-19T03:33:40.046Z,0.00
2019-03-19T03:34:40.049Z,0.00
2019-03-19T03:35:39.974Z,0.00
2019-03-19T03:36:39.979Z,0.00
2019-03-19T03:37:40.071Z,0.00
2019-03-19T03:38:39.968Z,0.00
2019-03-19T03:39:39.946Z,0.00
2019-03-19T03:40:39.945Z,0.00
2019-03-19T03:41:39.987Z,0.00
2019-03-19T03:42:42.822Z,0.00
2019-03-19T03:43:40.042Z,0.00
2019-03-19T03:44:39.895Z,0.00
2019-03-19T03:45:39.884Z,0.00
2019-03-19T03:46:39.907Z,0.00
2019-03-19T03:47:39.959Z,0.00
2019-03-19T03:48:39.850Z,0.00
2019-03-19T03:49:39.951Z,0.00
2019-03-19T03:50:39.876Z,0.00
2019-03-19T03:51:39.814Z,0.00
2019-03-19T03:52:39.802Z,0.00
2019-03-19T03:53:39.809Z,0.00
2019-03-19T03:54:39.797Z,0.00
2019-03-19T03:55:39.923Z,0.00
2019-03-19T03:56:39.773Z,0.00
2019-03-19T03:57:39.762Z,0.00
2019-03-19T03:58:39.748Z,0.00
2019-03-19T03:59:39.728Z,0.00
2019-03-19T04:00:39.736Z,0.00
2019-03-19T04:01:39.815Z,0.00
2019-03-19T04:02:39.714Z,0.00
2019-03-19T04:03:39.694Z,0.00
2019-03-19T04:04:39.744Z,0.00
2019-03-19T04:05:39.684Z,0.00
2019-03-19T04:06:39.671Z,0.00
2019-03-19T04:07:39.686Z,0.00
2019-03-19T04:08:39.646Z,0.00
2019-03-19T04:09:39.680Z,0.00
2019-03-19T04:10:39.617Z,0.00
2019-03-19T04:11:39.617Z,0.00
2019-03-19T04:12:39.612Z,0.00
2019-03-19T04:13:39.635Z,0.00
2019-03-19T04:14:39.646Z,0.00
2019-03-19T04:15:39.561Z,0.00
2019-03-19T04:16:39.566Z,0.00
2019-03-19T04:17:39.565Z,0.00
2019-03-19T04:18:39.561Z,0.00
2019-03-19T04:19:39.652Z,0.00
2019-03-19T04:20:39.584Z,0.00
2019-03-19T04:21:39.612Z,0.00
2019-03-19T04:22:39.509Z,0.00
2019-03-19T04:23:39.518Z,0.00
2019-03-19T04:24:39.476Z,0.00
2019-03-19T04:25:39.581Z,0.00
2019-03-19T04:26:39.512Z,0.00
2019-03-19T04:27:40.989Z,0.00
2019-03-19T04:28:39.431Z,0.00
2019-03-19T04:29:39.424Z,0.00
2019-03-19T04:30:39.415Z,0.00
2019-03-19T04:31:39.572Z,0.00
2019-03-19T04:32:39.390Z,0.00
2019-03-19T04:33:39.377Z,0.00
2019-03-19T04:34:39.415Z,0.00
2019-03-19T04:35:41.984Z,0.00
2019-03-19T04:36:39.345Z,0.00
2019-03-19T04:37:39.396Z,0.00
2019-03-19T04:38:39.358Z,0.00
2019-03-19T04:39:39.316Z,0.00
2019-03-19T04:40:39.308Z,0.00
2019-03-19T04:41:39.330Z,0.00
2019-03-19T04:42:39.297Z,0.00
2019-03-19T04:43:39.333Z,0.00
2019-03-19T04:44:39.264Z,0.00
2019-03-19T04:45:39.272Z,0.00
2019-03-19T04:46:39.269Z,0.00
2019-03-19T04:47:39.233Z,0.00
2019-03-19T04:48:39.226Z,0.00
2019-03-19T04:49:39.321Z,0.00
2019-03-19T04:50:39.333Z,0.00
2019-03-19T04:51:39.203Z,0.00
2019-03-19T04:52:39.188Z,0.00
2019-03-19T04:53:39.269Z,0.00
2019-03-19T04:54:39.202Z,0.00
2019-03-19T04:55:39.167Z,0.00
2019-03-19T04:56:39.151Z,0.00
2019-03-19T04:57:39.155Z,0.00
2019-03-19T04:58:39.130Z,0.00
2019-03-19T04:59:39.120Z,0.00
2019-03-19T05:00:39.117Z,0.00
2019-03-19T05:01:39.117Z,0.00
2019-03-19T05:02:39.111Z,0.00
2019-03-19T05:03:39.069Z,0.00
2019-03-19T05:04:39.058Z,4.00
2019-03-19T05:05:39.058Z,4.00
2019-03-19T05:06:39.044Z,4.00
2019-03-19T05:07:39.201Z,4.00
2019-03-19T05:08:39.050Z,4.00
2019-03-19T05:09:39.051Z,4.00
2019-03-19T05:10:39.046Z,8.00
2019-03-19T05:11:38.993Z,8.00
2019-03-19T05:12:38.988Z,8.00
2019-03-19T05:13:39.031Z,8.00
2019-03-19T05:14:39.030Z,16.00
2019-03-19T05:15:38.979Z,16.00
2019-03-19T05:16:38.952Z,20.00
2019-03-19T05:17:38.922Z,24.00
2019-03-19T05:18:39.198Z,28.00
2019-03-19T05:19:38.961Z,36.00
2019-03-19T05:20:38.909Z,44.00
2019-03-19T05:21:38.896Z,52.00
2019-03-19T05:22:38.884Z,60.00
2019-03-19T05:23:38.875Z,72.00
2019-03-19T05:24:38.892Z,84.00
2019-03-19T05:25:38.949Z,104.00
2019-03-19T05:26:38.849Z,120.00
2019-03-19T05:27:38.856Z,140.00
2019-03-19T05:28:38.811Z,160.00
2019-03-19T05:29:38.830Z,184.00
2019-03-19T05:30:38.914Z,208.00
2019-03-19T05:31:38.845Z,240.00
2019-03-19T05:32:38.794Z,264.00
2019-03-19T05:33:38.770Z,300.00
2019-03-19T05:34:38.773Z,336.00
2019-03-19T05:35:38.814Z,368.00
2019-03-19T05:36:38.812Z,408.00
2019-03-19T05:37:38.773Z,452.00
2019-03-19T05:38:38.734Z,496.00
2019-03-19T05:39:38.713Z,544.00
2019-03-19T05:40:38.734Z,592.00
2019-03-19T05:41:38.733Z,648.00
2019-03-19T05:42:38.679Z,700.00
2019-03-19T05:43:38.743Z,760.00
2019-03-19T05:44:38.701Z,816.00
2019-03-19T05:45:38.689Z,872.00
2019-03-19T05:46:38.692Z,936.00
2019-03-19T05:47:40.451Z,1000.00
2019-03-19T05:48:38.624Z,1064.00
2019-03-19T05:49:38.651Z,1132.00
2019-03-19T05:50:38.592Z,1200.00
2019-03-19T05:51:38.576Z,1268.00
2019-03-19T05:52:38.570Z,1340.00
2019-03-19T05:53:38.555Z,1412.00
2019-03-19T05:54:38.565Z,1484.00
2019-03-19T05:55:38.672Z,1552.00
2019-03-19T05:56:38.532Z,1628.00
2019-03-19T05:57:48.882Z,1700.00
2019-03-19T05:58:39.511Z,1772.00
2019-03-19T05:59:40.066Z,1844.00
2019-03-19T06:00:38.584Z,1920.00
2019-03-19T06:01:38.588Z,1988.00
2019-03-19T06:02:38.547Z,2064.00
2019-03-19T06:03:38.471Z,2136.00
2019-03-19T06:04:38.482Z,2212.00
2019-03-19T06:05:38.438Z,2280.00
2019-03-19T06:06:38.466Z,2356.00
2019-03-19T06:07:38.498Z,2428.00
2019-03-19T06:08:38.432Z,2504.00
2019-03-19T06:09:38.407Z,2572.00
2019-03-19T06:10:38.403Z,2644.00
2019-03-19T06:11:38.370Z,2720.00
2019-03-19T06:12:38.358Z,2796.00
2019-03-19T06:13:38.401Z,2876.00
2019-03-19T06:14:38.345Z,2956.00
2019-03-19T06:15:38.345Z,3044.00
2019-03-19T06:16:38.322Z,3132.00
2019-03-19T06:17:38.322Z,3252.00
2019-03-19T06:18:38.306Z,4276.00
2019-03-19T06:19:38.394Z,6336.00
2019-03-19T06:20:38.428Z,8156.00
2019-03-19T06:21:38.287Z,9528.00
2019-03-19T06:22:38.319Z,9872.00
2019-03-19T06:23:38.259Z,10656.00
2019-03-19T06:24:38.295Z,10912.00
2019-03-19T06:25:38.274Z,10784.00
2019-03-19T06:26:38.216Z,10944.00
2019-03-19T06:27:38.267Z,11488.00
2019-03-19T06:28:38.213Z,11712.00
2019-03-19T06:29:38.215Z,10948.00
2019-03-19T06:30:38.184Z,10256.00
2019-03-19T06:31:38.207Z,9824.00
2019-03-19T06:32:38.178Z,10152.00
2019-03-19T06:33:38.157Z,10380.00
2019-03-19T06:34:38.159Z,10136.00
2019-03-19T06:35:38.207Z,10016.00
2019-03-19T06:36:38.117Z,9996.00
2019-03-19T06:37:38.222Z,10184.00
2019-03-19T06:38:38.117Z,10496.00
2019-03-19T06:39:38.117Z,10600.00
2019-03-19T06:40:38.091Z,10688.00
2019-03-19T06:41:38.056Z,10644.00
2019-03-19T06:42:38.053Z,11160.00
2019-03-19T06:43:38.101Z,11456.00
2019-03-19T06:44:38.046Z,11996.00
2019-03-19T06:45:38.072Z,12052.00
2019-03-19T06:46:38.014Z,11948.00
2019-03-19T06:47:38.010Z,11156.00
2019-03-19T06:48:37.985Z,11164.00
2019-03-19T06:49:38.075Z,12072.00
2019-03-19T06:50:45.205Z,12692.00
2019-03-19T06:51:38.971Z,13184.00
2019-03-19T06:52:37.953Z,13184.00
2019-03-19T06:53:37.950Z,13168.00
2019-03-19T06:54:37.976Z,13644.00
2019-03-19T06:55:37.936Z,13900.00
2019-03-19T06:56:37.923Z,13068.00
2019-03-19T06:57:39.432Z,13444.00
2019-03-19T06:58:37.957Z,14036.00
2019-03-19T06:59:37.871Z,13828.00
2019-03-19T07:00:37.865Z,13780.00
2019-03-19T07:01:37.924Z,14496.00
2019-03-19T07:02:37.875Z,15520.00
2019-03-19T07:03:37.853Z,16192.00
2019-03-19T07:04:37.838Z,16032.00
2019-03-19T07:05:37.816Z,15328.00
2019-03-19T07:06:37.813Z,15328.00
2019-03-19T07:07:37.827Z,15360.00
2019-03-19T07:08:37.799Z,15008.00
2019-03-19T07:09:37.763Z,15552.00
2019-03-19T07:10:37.752Z,17952.00
2019-03-19T07:11:37.756Z,19744.00
2019-03-19T07:12:37.742Z,19296.00
2019-03-19T07:13:37.745Z,17536.00
2019-03-19T07:14:37.779Z,18144.00
2019-03-19T07:15:37.722Z,18304.00
2019-03-19T07:16:37.694Z,20096.00
2019-03-19T07:17:37.694Z,24128.00
2019-03-19T07:18:37.761Z,26400.00
2019-03-19T07:19:37.795Z,25088.00
2019-03-19T07:20:37.726Z,24544.00
2019-03-19T07:21:37.707Z,24608.00
2019-03-19T07:22:37.627Z,27104.00
2019-03-19T07:23:37.643Z,31936.00
2019-03-19T07:24:37.609Z,35328.00
2019-03-19T07:25:37.645Z,30336.00
2019-03-19T07:26:37.586Z,24032.00
2019-03-19T07:27:37.598Z,17984.00
2019-03-19T07:28:37.569Z,17120.00
2019-03-19T07:29:37.565Z,17088.00
2019-03-19T07:30:37.613Z,16384.00
2019-03-19T07:31:37.553Z,15552.00
2019-03-19T07:32:37.522Z,15232.00
2019-03-19T07:33:37.511Z,14856.00
2019-03-19T07:34:37.524Z,14780.00
2019-03-19T07:35:37.485Z,14864.00
2019-03-19T07:36:37.533Z,14844.00
2019-03-19T07:37:37.516Z,15032.00
2019-03-19T07:38:37.453Z,15480.00
2019-03-19T07:39:37.441Z,16992.00
2019-03-19T07:40:37.434Z,21984.00
2019-03-19T07:41:37.422Z,27104.00
2019-03-19T07:42:37.431Z,29504.00
2019-03-19T07:43:37.488Z,30656.00
2019-03-19T07:44:37.389Z,31392.00
2019-03-19T07:45:37.380Z,30880.00
2019-03-19T07:46:37.370Z,32672.00
2019-03-19T07:47:37.367Z,33216.00
2019-03-19T07:48:37.357Z,33152.00
2019-03-19T07:49:37.374Z,34240.00
2019-03-19T07:50:37.334Z,35584.00
2019-03-19T07:51:37.408Z,35168.00
2019-03-19T07:52:37.306Z,35616.00
2019-03-19T07:53:37.287Z,36736.00
2019-03-19T07:54:37.284Z,37440.00
2019-03-19T07:55:37.303Z,37856.00
2019-03-19T07:56:37.259Z,38080.00
2019-03-19T07:57:37.252Z,37344.00
2019-03-19T07:58:45.252Z,37120.00
2019-03-19T07:59:38.225Z,39200.00
2019-03-19T08:00:37.253Z,39968.00
2019-03-19T08:01:37.227Z,39552.00
2019-03-19T08:02:37.191Z,39968.00
2019-03-19T08:03:37.194Z,41856.00
2019-03-19T08:04:37.578Z,41792.00
2019-03-19T08:05:37.188Z,42144.00
2019-03-19T08:06:37.373Z,41888.00
2019-03-19T08:07:37.520Z,41248.00
2019-03-19T08:08:37.552Z,42176.00
2019-03-19T08:09:37.736Z,43744.00
2019-03-19T08:10:37.113Z,44800.00
2019-03-19T08:11:37.112Z,45184.00
2019-03-19T08:12:37.100Z,44576.00
2019-03-19T08:13:37.165Z,44256.00
2019-03-19T08:14:37.077Z,45280.00
2019-03-19T08:15:37.074Z,45568.00
2019-03-19T08:16:37.048Z,44832.00
2019-03-19T08:17:37.045Z,44096.00
2019-03-19T08:18:37.053Z,46048.00
2019-03-19T08:19:37.091Z,48736.00
2019-03-19T08:20:37.036Z,48416.00
2019-03-19T08:21:36.994Z,48960.00
2019-03-19T08:22:37.000Z,49088.00
2019-03-19T08:23:36.974Z,49920.00
2019-03-19T08:24:36.987Z,49888.00
2019-03-19T08:25:36.987Z,50656.00
2019-03-19T08:26:36.934Z,52224.00
2019-03-19T08:27:36.927Z,52512.00
2019-03-19T08:28:36.914Z,51712.00
2019-03-19T08:29:43.942Z,49088.00
2019-03-19T08:30:36.917Z,47360.00
2019-03-19T08:31:36.930Z,48128.00
2019-03-19T08:32:36.868Z,49504.00
2019-03-19T08:33:36.858Z,52928.00
2019-03-19T08:34:36.844Z,55840.00
2019-03-19T08:35:38.045Z,55488.00
2019-03-19T08:36:36.825Z,56160.00
2019-03-19T08:37:36.863Z,55872.00
2019-03-19T08:38:36.802Z,57120.00
2019-03-19T08:39:36.792Z,60032.00
2019-03-19T08:40:36.785Z,60640.00
2019-03-19T08:41:36.770Z,59008.00
2019-03-19T08:42:36.759Z,60832.00
2019-03-19T08:43:36.780Z,62176.00
2019-03-19T08:44:36.737Z,60704.00
2019-03-19T08:45:36.725Z,60448.00
2019-03-19T08:46:36.721Z,60064.00
2019-03-19T08:47:38.435Z,60448.00
2019-03-19T08:48:37.515Z,59840.00
2019-03-19T08:49:36.699Z,58208.00
2019-03-19T08:50:36.671Z,57120.00
2019-03-19T08:51:36.660Z,56160.00
2019-03-19T08:52:36.651Z,56128.00
2019-03-19T08:53:36.641Z,57120.00
2019-03-19T08:54:36.658Z,59296.00
2019-03-19T08:55:36.632Z,59360.00
2019-03-19T08:56:36.609Z,58976.00
2019-03-19T08:57:36.596Z,60800.00
2019-03-19T08:58:36.587Z,61984.00
2019-03-19T08:59:36.577Z,63392.00
2019-03-19T09:00:36.567Z,64768.00
2019-03-19T09:01:36.575Z,68096.00
2019-03-19T09:02:36.545Z,70784.00
2019-03-19T09:03:36.535Z,72096.00
2019-03-19T09:04:36.521Z,71776.00
2019-03-19T09:05:36.511Z,70816.00
2019-03-19T09:06:36.502Z,70656.00
2019-03-19T09:07:36.508Z,70656.00
2019-03-19T09:08:36.483Z,70208.00
2019-03-19T09:09:36.469Z,64192.00
2019-03-19T09:10:36.457Z,65568.00
2019-03-19T09:11:36.678Z,66368.00
2019-03-19T09:12:36.441Z,66016.00
2019-03-19T09:13:36.445Z,66720.00
2019-03-19T09:14:36.416Z,67840.00
2019-03-19T09:15:36.402Z,68192.00
2019-03-19T09:16:36.393Z,69280.00
2019-03-19T09:17:36.380Z,67168.00
2019-03-19T09:18:36.371Z,68640.00
2019-03-19T09:19:36.374Z,71488.00
2019-03-19T09:20:36.354Z,71808.00
2019-03-19T09:21:36.337Z,70528.00
2019-03-19T09:22:36.328Z,70752.00
2019-03-19T09:23:36.318Z,70720.00
2019-03-19T09:24:36.305Z,71072.00
2019-03-19T09:25:36.312Z,71648.00
2019-03-19T09:26:36.288Z,72096.00
2019-03-19T09:27:36.274Z,72096.00
2019-03-19T09:28:36.264Z,72832.00
2019-03-19T09:29:36.254Z,74112.00
2019-03-19T09:30:36.241Z,73632.00
2019-03-19T09:31:36.249Z,74176.00
2019-03-19T09:32:36.223Z,74080.00
2019-03-19T09:33:36.211Z,73728.00
2019-03-19T09:34:36.200Z,72864.00
2019-03-19T09:35:36.190Z,73216.00
2019-03-19T09:36:36.178Z,73600.00
2019-03-19T09:37:36.180Z,73920.00
2019-03-19T09:38:36.155Z,76160.00
2019-03-19T09:39:36.146Z,75200.00
2019-03-19T09:40:36.136Z,75072.00
2019-03-19T09:41:36.122Z,74688.00
2019-03-19T09:42:36.113Z,72736.00
2019-03-19T09:43:36.125Z,74432.00
2019-03-19T09:44:36.090Z,74816.00
2019-03-19T09:45:36.081Z,72448.00
2019-03-19T09:46:36.071Z,72384.00
2019-03-19T09:47:36.059Z,73120.00
2019-03-19T09:48:36.049Z,73152.00
2019-03-19T09:49:36.055Z,72672.00
2019-03-19T09:50:36.026Z,74112.00
2019-03-19T09:51:36.015Z,76608.00
2019-03-19T09:52:36.007Z,75904.00
2019-03-19T09:53:36.048Z,73216.00
2019-03-19T09:54:35.985Z,73856.00
2019-03-19T09:55:36.080Z,75872.00
2019-03-19T09:56:35.962Z,77088.00
2019-03-19T09:57:35.957Z,76640.00
2019-03-19T09:58:35.939Z,77440.00
2019-03-19T09:59:35.930Z,79712.00
2019-03-19T10:00:35.921Z,80640.00
2019-03-19T10:01:35.920Z,79424.00
2019-03-19T10:02:35.900Z,78496.00
2019-03-19T10:03:35.885Z,78272.00
2019-03-19T10:04:35.875Z,80064.00
2019-03-19T10:05:35.867Z,82048.00
2019-03-19T10:06:35.853Z,81280.00
2019-03-19T10:07:35.949Z,77632.00
2019-03-19T10:08:35.837Z,76448.00
2019-03-19T10:09:35.821Z,75808.00
2019-03-19T10:10:35.880Z,79264.00
2019-03-19T10:11:35.815Z,82208.00
2019-03-19T10:12:35.789Z,67584.00
2019-03-19T10:13:35.798Z,80448.00
2019-03-19T10:14:35.770Z,81984.00
2019-03-19T10:15:35.757Z,15800.00
2019-03-19T10:16:35.747Z,9868.00
2019-03-19T10:17:35.738Z,9760.00
2019-03-19T10:18:35.725Z,11064.00
2019-03-19T10:19:35.727Z,22816.00
2019-03-19T10:20:35.706Z,84768.00
2019-03-19T10:21:35.692Z,82528.00
2019-03-19T10:22:35.684Z,82080.00
2019-03-19T10:23:35.670Z,82880.00
2019-03-19T10:24:35.660Z,83040.00
2019-03-19T10:25:37.951Z,81792.00
2019-03-19T10:26:35.641Z,72448.00
2019-03-19T10:27:35.631Z,73696.00
2019-03-19T10:28:35.616Z,83168.00
2019-03-19T10:29:38.469Z,62688.00
2019-03-19T10:30:35.597Z,26624.00
2019-03-19T10:31:35.606Z,63392.00
2019-03-19T10:32:35.574Z,93280.00
2019-03-19T10:33:35.564Z,86496.00
2019-03-19T10:34:35.555Z,17152.00
2019-03-19T10:35:35.542Z,17568.00
2019-03-19T10:36:35.531Z,19392.00
2019-03-19T10:37:35.622Z,21088.00
2019-03-19T10:38:35.509Z,23104.00
2019-03-19T10:39:35.499Z,24736.00
2019-03-19T10:40:35.486Z,31200.00
2019-03-19T10:41:35.479Z,108672.00
2019-03-19T10:42:35.470Z,108768.00
2019-03-19T10:43:35.473Z,101792.00
2019-03-19T10:44:35.444Z,68224.00
2019-03-19T10:45:35.435Z,99488.00
2019-03-19T10:46:35.422Z,35136.00
2019-03-19T10:47:35.416Z,31872.00
2019-03-19T10:48:35.403Z,28672.00
2019-03-19T10:49:35.492Z,26240.00
2019-03-19T10:50:35.382Z,26272.00
2019-03-19T10:51:35.405Z,28928.00
2019-03-19T10:52:35.358Z,33664.00
2019-03-19T10:53:35.349Z,54336.00
2019-03-19T10:54:35.336Z,62912.00
2019-03-19T10:55:35.429Z,81344.00
2019-03-19T10:56:35.319Z,89344.00
2019-03-19T10:57:35.306Z,117632.00
2019-03-19T10:58:35.295Z,97568.00
2019-03-19T10:59:35.288Z,81120.00
2019-03-19T11:00:35.274Z,78368.00
2019-03-19T11:01:35.278Z,39584.00
2019-03-19T11:02:35.254Z,37440.00
2019-03-19T11:03:35.241Z,36832.00
2019-03-19T11:04:35.230Z,35360.00
2019-03-19T11:05:35.221Z,36832.00
2019-03-19T11:06:35.208Z,49248.00
2019-03-19T11:07:35.302Z,57120.00
2019-03-19T11:08:35.185Z,79616.00
2019-03-19T11:09:35.195Z,55904.00
2019-03-19T11:10:35.168Z,53568.00
2019-03-19T11:11:35.154Z,44544.00
2019-03-19T11:12:35.141Z,42048.00
2019-03-19T11:13:35.173Z,38784.00
2019-03-19T11:14:35.125Z,35456.00
2019-03-19T11:15:35.109Z,31808.00
2019-03-19T11:16:35.099Z,29984.00
2019-03-19T11:17:35.090Z,29856.00
2019-03-19T11:18:35.077Z,31328.00
2019-03-19T11:19:35.083Z,34176.00
2019-03-19T11:20:35.056Z,35872.00
2019-03-19T11:21:35.045Z,28000.00
2019-03-19T11:22:35.035Z,25728.00
2019-03-19T11:23:35.025Z,23808.00
2019-03-19T11:24:35.014Z,22304.00
2019-03-19T11:25:35.102Z,22112.00
2019-03-19T11:26:34.990Z,22688.00
2019-03-19T11:27:34.981Z,23008.00
2019-03-19T11:28:35.433Z,24416.00
2019-03-19T11:29:34.958Z,26080.00
2019-03-19T11:30:34.949Z,27264.00
2019-03-19T11:31:34.959Z,27424.00
2019-03-19T11:32:34.927Z,27264.00
2019-03-19T11:33:34.914Z,27872.00
2019-03-19T11:34:34.904Z,28832.00
2019-03-19T11:35:34.896Z,29728.00
2019-03-19T11:36:34.882Z,30496.00
2019-03-19T11:37:34.887Z,30560.00
2019-03-19T11:38:34.863Z,29984.00
2019-03-19T11:39:34.847Z,28832.00
2019-03-19T11:40:34.845Z,27584.00
2019-03-19T11:41:34.835Z,26848.00
2019-03-19T11:42:34.818Z,26720.00
2019-03-19T11:43:34.824Z,26848.00
2019-03-19T11:44:34.798Z,27808.00
2019-03-19T11:45:34.786Z,29152.00
2019-03-19T11:46:34.779Z,30656.00
2019-03-19T11:47:34.767Z,30720.00
2019-03-19T11:48:34.755Z,30176.00
2019-03-19T11:49:34.763Z,28832.00
2019-03-19T11:50:34.734Z,27968.00
2019-03-19T11:51:34.723Z,27392.00
2019-03-19T11:52:34.712Z,27424.00
2019-03-19T11:53:34.700Z,27264.00
2019-03-19T11:54:34.697Z,27392.00
2019-03-19T11:55:34.694Z,28160.00
2019-03-19T11:56:34.668Z,28672.00
2019-03-19T11:57:34.657Z,35104.00
2019-03-19T11:58:34.648Z,27232.00
2019-03-19T11:59:34.636Z,25536.00
2019-03-19T12:00:34.625Z,24192.00
2019-03-19T12:01:34.632Z,23808.00
2019-03-19T12:02:34.608Z,26688.00
2019-03-19T12:03:34.598Z,25536.00
2019-03-19T12:04:34.582Z,27136.00
2019-03-19T12:05:34.570Z,48544.00
2019-03-19T12:06:34.563Z,93664.00
2019-03-19T12:07:34.569Z,102976.00
2019-03-19T12:08:34.538Z,50784.00
2019-03-19T12:09:34.532Z,59552.00
2019-03-19T12:10:34.515Z,50816.00
2019-03-19T12:11:34.504Z,51776.00
2019-03-19T12:12:34.496Z,50720.00
2019-03-19T12:13:34.503Z,46944.00
2019-03-19T12:14:34.477Z,41376.00
2019-03-19T12:15:34.461Z,42432.00
2019-03-19T12:16:34.572Z,38432.00
2019-03-19T12:17:34.443Z,41280.00
2019-03-19T12:18:34.431Z,42144.00
2019-03-19T12:19:34.432Z,40000.00
2019-03-19T12:20:34.410Z,40800.00
2019-03-19T12:21:34.399Z,41952.00
2019-03-19T12:22:34.391Z,36608.00
2019-03-19T12:23:34.385Z,34784.00
2019-03-19T12:24:34.368Z,59808.00